createdAt,value
2023-02-23T00:00:52.037Z,15.91
2023-02-23T00:03:59.323Z,15.79
2023-02-23T00:07:01.502Z,15.91
2023-02-23T00:10:03.800Z,15.90
2023-02-23T00:13:05.783Z,15.85
2023-02-23T00:16:14.111Z,15.86
2023-02-23T00:19:16.160Z,15.84
2023-02-23T00:22:18.622Z,15.86
2023-02-23T00:25:23.097Z,15.79
2023-02-23T00:28:25.534Z,15.94
2023-02-23T00:31:29.654Z,15.91
2023-02-23T00:34:32.166Z,15.91
2023-02-23T00:37:34.243Z,15.81
2023-02-23T00:40:41.040Z,15.82
2023-02-23T00:43:47.660Z,15.90
2023-02-23T00:46:52.632Z,15.77
2023-02-23T00:49:54.943Z,15.75
2023-02-23T00:52:59.793Z,15.76
2023-02-23T00:56:07.949Z,15.74
2023-02-23T00:59:12.305Z,15.60
2023-02-23T01:02:16.634Z,15.61
2023-02-23T01:05:18.620Z,15.50
2023-02-23T01:08:25.297Z,15.32
2023-02-23T01:11:31.170Z,15.40
2023-02-23T01:14:34.242Z,15.26
2023-02-23T01:17:36.289Z,15.19
2023-02-23T01:20:42.527Z,15.16
2023-02-23T01:23:46.237Z,15.15
2023-02-23T01:26:48.370Z,15.16
2023-02-23T01:29:50.511Z,15.15
2023-02-23T01:32:52.506Z,15.09
2023-02-23T01:36:00.963Z,14.99
2023-02-23T01:39:07.962Z,14.97
2023-02-23T01:42:14.093Z,14.80
2023-02-23T01:45:22.647Z,14.86
2023-02-23T01:48:28.908Z,14.83
2023-02-23T01:51:34.904Z,14.71
2023-02-23T01:54:40.348Z,14.69
2023-02-23T01:57:42.775Z,14.65
2023-02-23T02:00:56.939Z,14.72
2023-02-23T02:04:05.667Z,14.74
2023-02-23T02:07:07.949Z,14.80
2023-02-23T02:10:13.432Z,14.75
2023-02-23T02:13:22.022Z,14.67
2023-02-23T02:16:31.465Z,14.84
2023-02-23T02:20:32.325Z,14.72
2023-02-23T02:23:41.981Z,14.58
2023-02-23T02:27:18.117Z,14.56
2023-02-23T02:30:39.893Z,14.56
2023-02-23T02:34:14.466Z,14.57
2023-02-23T02:37:41.870Z,14.54
2023-02-23T02:41:05.364Z,14.34
2023-02-23T02:44:36.395Z,14.13
2023-02-23T02:47:59.165Z,14.32
2023-02-23T02:51:04.341Z,14.36
2023-02-23T02:54:18.302Z,14.20
2023-02-23T02:57:26.450Z,14.17
2023-02-23T03:00:55.922Z,14.34
2023-02-23T03:04:20.916Z,14.04
2023-02-23T03:08:22.995Z,14.11
2023-02-23T03:11:54.564Z,14.28
2023-02-23T03:15:34.766Z,14.50
2023-02-23T03:19:33.214Z,14.36
2023-02-23T03:23:01.246Z,14.42
2023-02-23T03:26:40.432Z,14.33
2023-02-23T03:30:39.354Z,14.34
2023-02-23T03:34:27.778Z,14.07
2023-02-23T03:37:57.786Z,14.07
2023-02-23T03:41:19.455Z,14.12
2023-02-23T03:44:51.540Z,14.01
2023-02-23T03:48:18.423Z,13.98
2023-02-23T03:51:42.415Z,14.02
2023-02-23T03:55:12.161Z,13.93
2023-02-23T03:58:35.385Z,13.91
2023-02-23T04:01:57.633Z,13.90
2023-02-23T04:05:24.337Z,14.12
2023-02-23T04:08:52.869Z,14.22
2023-02-23T04:12:26.783Z,14.13
2023-02-23T04:15:39.189Z,14.13
2023-02-23T04:18:42.731Z,14.09
2023-02-23T04:21:45.423Z,14.07
2023-02-23T04:24:47.890Z,14.08
2023-02-23T04:27:50.880Z,13.97
2023-02-23T04:30:53.087Z,13.92
2023-02-23T04:33:55.183Z,13.75
2023-02-23T04:36:57.237Z,13.70
2023-02-23T04:39:59.384Z,13.76
2023-02-23T04:43:01.449Z,14.17
2023-02-23T04:46:03.535Z,14.75
2023-02-23T04:49:07.998Z,15.22
2023-02-23T04:52:10.305Z,15.68
2023-02-23T04:55:21.695Z,15.84
2023-02-23T04:58:24.021Z,16.03
2023-02-23T05:01:27.291Z,16.10
2023-02-23T05:04:29.926Z,16.26
2023-02-23T05:07:32.202Z,16.30
2023-02-23T05:10:35.671Z,16.27
2023-02-23T05:13:38.737Z,16.18
2023-02-23T05:16:40.826Z,16.20
2023-02-23T05:19:42.771Z,16.28
2023-02-23T05:22:45.278Z,16.06
2023-02-23T05:25:47.714Z,17.13
2023-02-23T05:28:50.271Z,18.29
2023-02-23T05:31:52.475Z,18.68
2023-02-23T05:34:54.796Z,18.26
2023-02-23T05:37:56.815Z,19.97
2023-02-23T05:40:58.825Z,19.76
2023-02-23T05:44:02.834Z,19.31
2023-02-23T05:47:05.820Z,19.71
2023-02-23T05:50:11.588Z,20.43
2023-02-23T05:53:13.819Z,20.27
2023-02-23T05:56:23.512Z,19.30
2023-02-23T05:59:25.550Z,20.06
2023-02-23T06:02:27.557Z,19.69
2023-02-23T06:05:30.113Z,19.10
2023-02-23T06:08:32.625Z,19.80
2023-02-23T06:11:35.694Z,19.70
2023-02-23T06:14:37.733Z,19.10
2023-02-23T06:17:39.785Z,19.08
2023-02-23T06:20:41.735Z,20.35
2023-02-23T06:23:43.802Z,19.52
2023-02-23T06:26:46.497Z,19.22
2023-02-23T06:29:48.518Z,20.65
2023-02-23T06:32:52.482Z,19.95
2023-02-23T06:35:56.608Z,19.57
2023-02-23T06:38:59.586Z,20.16
2023-02-23T06:42:01.599Z,20.61
2023-02-23T06:45:05.076Z,19.76
2023-02-23T06:48:07.951Z,19.32
2023-02-23T06:51:10.197Z,20.26
2023-02-23T06:54:12.112Z,19.71
2023-02-23T06:57:14.433Z,19.50
2023-02-23T07:00:17.912Z,20.91
2023-02-23T07:03:20.061Z,20.10
2023-02-23T07:06:22.063Z,19.69
2023-02-23T07:09:24.280Z,20.87
2023-02-23T07:12:26.593Z,21.44
2023-02-23T07:15:29.221Z,20.18
2023-02-23T07:18:31.301Z,20.32
2023-02-23T07:21:33.818Z,21.92
2023-02-23T07:24:35.919Z,21.16
2023-02-23T07:27:38.345Z,20.41
2023-02-23T07:30:40.911Z,22.03
2023-02-23T07:33:43.364Z,21.19
2023-02-23T07:36:46.668Z,20.55
2023-02-23T07:39:48.767Z,21.47
2023-02-23T07:42:51.334Z,21.86
2023-02-23T07:45:53.862Z,21.16
2023-02-23T07:48:56.091Z,20.99
2023-02-23T07:51:58.669Z,22.02
2023-02-23T07:55:01.914Z,21.03
2023-02-23T07:58:06.280Z,20.08
2023-02-23T08:01:10.057Z,21.95
2023-02-23T08:04:12.400Z,21.07
2023-02-23T08:07:14.489Z,20.14
2023-02-23T08:10:16.646Z,21.00
2023-02-23T08:13:18.940Z,20.60
2023-02-23T08:16:21.597Z,20.49
2023-02-23T08:19:25.146Z,20.14
2023-02-23T08:22:37.883Z,20.09
2023-02-23T08:25:46.594Z,19.73
2023-02-23T08:28:48.559Z,19.46
2023-02-23T08:31:53.908Z,19.36
2023-02-23T08:34:58.260Z,19.15
2023-02-23T08:38:00.918Z,19.04
2023-02-23T08:41:06.072Z,18.92
2023-02-23T08:44:08.583Z,18.65
2023-02-23T08:47:11.913Z,18.66
2023-02-23T08:50:16.921Z,18.43
2023-02-23T08:53:25.744Z,18.31
2023-02-23T08:56:36.420Z,18.21
2023-02-23T08:59:47.891Z,18.07
2023-02-23T09:02:52.419Z,18.08
2023-02-23T09:05:55.258Z,17.94
2023-02-23T09:08:57.597Z,17.90
2023-02-23T09:12:00.617Z,17.78
2023-02-23T09:18:19.300Z,17.57
2023-02-23T09:21:25.586Z,17.43
2023-02-23T09:24:36.524Z,17.41
2023-02-23T09:31:17.271Z,17.22
2023-02-23T09:34:20.209Z,17.19
2023-02-23T09:37:22.379Z,17.14
2023-02-23T09:40:28.336Z,17.22
2023-02-23T09:43:45.230Z,17.03
2023-02-23T09:46:53.095Z,16.97
2023-02-23T09:50:00.417Z,16.88
2023-02-23T09:53:40.774Z,16.80
2023-02-23T09:57:22.521Z,16.73
2023-02-23T10:00:28.081Z,16.71
2023-02-23T10:03:40.338Z,16.68
2023-02-23T10:06:49.690Z,16.95
2023-02-23T10:13:57.596Z,19.00
2023-02-23T10:17:56.701Z,19.45
2023-02-23T10:21:12.345Z,19.69
2023-02-23T10:24:40.910Z,19.26
2023-02-23T10:27:49.956Z,18.19
2023-02-23T10:30:56.943Z,17.67
2023-02-23T10:34:06.157Z,17.26
2023-02-23T10:37:13.058Z,17.35
2023-02-23T10:40:23.256Z,17.27
2023-02-23T10:43:25.811Z,17.24
2023-02-23T10:46:40.740Z,17.09
2023-02-23T10:49:48.516Z,17.01
2023-02-23T10:52:57.005Z,17.24
2023-02-23T10:56:06.935Z,17.22
2023-02-23T10:59:20.751Z,17.43
2023-02-23T11:02:27.573Z,17.43
2023-02-23T11:09:43.335Z,17.59
2023-02-23T11:12:53.659Z,17.50
2023-02-23T11:17:00.558Z,17.33
2023-02-23T11:20:20.527Z,17.23
2023-02-23T11:23:43.663Z,16.92
2023-02-23T11:26:48.782Z,16.97
2023-02-23T11:29:54.253Z,16.90
2023-02-23T11:33:11.100Z,16.78
2023-02-23T11:36:16.679Z,16.81
2023-02-23T11:39:22.978Z,16.75
2023-02-23T11:42:28.567Z,16.66
2023-02-23T11:45:34.624Z,16.47
2023-02-23T11:48:55.020Z,16.43
2023-02-23T11:51:59.595Z,16.34
2023-02-23T11:55:16.007Z,16.30
2023-02-23T11:58:28.137Z,16.31
2023-02-23T12:01:41.839Z,16.33
2023-02-23T12:04:48.162Z,16.34
2023-02-23T12:08:02.806Z,16.21
2023-02-23T12:11:15.277Z,16.14
2023-02-23T12:14:56.084Z,16.04
2023-02-23T12:18:05.513Z,15.97
2023-02-23T12:21:35.037Z,15.96
2023-02-23T12:24:45.541Z,15.98
2023-02-23T12:28:18.089Z,16.07
2023-02-23T12:31:43.261Z,16.08
2023-02-23T12:35:16.186Z,16.10
2023-02-23T12:38:38.535Z,16.03
2023-02-23T12:42:04.414Z,15.65
2023-02-23T12:45:17.521Z,15.76
2023-02-23T12:48:33.613Z,15.72
2023-02-23T12:51:41.316Z,15.57
2023-02-23T12:54:49.253Z,15.42
2023-02-23T12:58:02.030Z,15.42
2023-02-23T13:01:07.193Z,15.40
2023-02-23T13:04:34.690Z,15.37
2023-02-23T13:08:13.692Z,15.38
2023-02-23T13:11:33.319Z,15.38
2023-02-23T13:14:47.974Z,15.38
2023-02-23T13:18:04.918Z,15.44
2023-02-23T13:21:42.584Z,15.42
2023-02-23T13:24:49.627Z,15.43
2023-02-23T13:27:55.480Z,15.37
2023-02-23T13:30:58.207Z,15.30
2023-02-23T13:34:04.724Z,15.22
2023-02-23T13:37:08.658Z,15.16
2023-02-23T13:40:19.541Z,15.03
2023-02-23T13:43:24.243Z,15.13
2023-02-23T13:46:47.823Z,15.02
2023-02-23T13:50:22.805Z,14.98
2023-02-23T13:54:00.119Z,15.04
2023-02-23T13:57:08.812Z,15.06
2023-02-23T14:00:30.958Z,15.01
2023-02-23T14:03:45.420Z,15.14
2023-02-23T14:07:16.937Z,15.13
2023-02-23T14:10:23.917Z,15.13
2023-02-23T14:13:29.013Z,15.15
2023-02-23T14:16:31.634Z,15.08
2023-02-23T14:19:45.314Z,15.13
2023-02-23T14:23:16.006Z,15.09
2023-02-23T14:26:42.227Z,14.94
2023-02-23T14:30:10.407Z,14.87
2023-02-23T14:33:36.636Z,14.85
2023-02-23T14:36:44.443Z,14.90
2023-02-23T14:39:49.990Z,14.93
2023-02-23T14:42:57.711Z,14.84
2023-02-23T14:46:06.384Z,14.83
2023-02-23T14:49:12.700Z,14.89
2023-02-23T14:52:22.317Z,14.96
2023-02-23T14:55:29.329Z,14.97
2023-02-23T14:58:35.359Z,14.89
2023-02-23T15:01:39.685Z,14.99
2023-02-23T15:04:42.402Z,15.12
2023-02-23T15:07:45.851Z,15.11
2023-02-23T15:10:51.128Z,15.07
2023-02-23T15:13:55.072Z,15.14
2023-02-23T15:16:57.307Z,15.15
2023-02-23T15:20:15.763Z,15.13
2023-02-23T15:23:19.618Z,15.14
2023-02-23T15:26:35.723Z,15.16
2023-02-23T15:29:41.606Z,15.07
2023-02-23T15:32:43.787Z,15.04
2023-02-23T15:35:54.495Z,15.04
2023-02-23T15:38:58.835Z,15.08
2023-02-23T15:42:02.555Z,15.05
2023-02-23T15:45:20.134Z,15.01
2023-02-23T15:48:36.513Z,15.04
2023-02-23T15:51:49.009Z,14.95
2023-02-23T15:55:06.651Z,15.00
2023-02-23T15:58:31.539Z,14.99
2023-02-23T16:01:34.740Z,15.00
2023-02-23T16:04:54.117Z,14.96
2023-02-23T16:08:05.605Z,14.81
2023-02-23T16:11:15.293Z,14.74
2023-02-23T16:14:20.200Z,14.64
2023-02-23T16:17:27.549Z,14.61
2023-02-23T16:20:35.610Z,14.72
2023-02-23T16:23:47.907Z,14.72
2023-02-23T16:26:58.214Z,14.73
2023-02-23T16:30:34.525Z,14.77
2023-02-23T16:33:55.019Z,15.15
2023-02-23T16:37:03.626Z,15.77
2023-02-23T16:40:05.702Z,16.34
2023-02-23T16:43:10.445Z,16.98
2023-02-23T16:46:26.226Z,17.55
2023-02-23T16:49:35.887Z,17.91
2023-02-23T16:52:47.580Z,18.31
2023-02-23T16:56:02.772Z,18.31
2023-02-23T16:59:08.044Z,18.15
2023-02-23T17:02:13.912Z,18.15
2023-02-23T17:05:19.003Z,18.08
2023-02-23T17:08:36.738Z,17.98
2023-02-23T17:11:49.917Z,17.78
2023-02-23T17:14:52.794Z,17.77
2023-02-23T17:18:04.699Z,17.61
2023-02-23T17:21:23.068Z,17.46
2023-02-23T17:24:26.856Z,17.54
2023-02-23T17:27:28.860Z,17.49
2023-02-23T17:30:32.022Z,17.46
2023-02-23T17:33:36.589Z,17.53
2023-02-23T17:36:38.857Z,17.42
2023-02-23T17:39:42.228Z,17.45
2023-02-23T17:42:45.151Z,17.26
2023-02-23T17:45:48.233Z,17.07
2023-02-23T17:48:55.214Z,17.20
2023-02-23T17:51:58.335Z,17.03
2023-02-23T17:55:02.822Z,16.92
2023-02-23T17:58:04.900Z,16.95
2023-02-23T18:01:07.708Z,16.61
2023-02-23T18:04:09.880Z,16.57
2023-02-23T18:07:13.023Z,16.53
2023-02-23T18:10:17.308Z,16.46
2023-02-23T18:13:20.173Z,16.47
2023-02-23T18:16:25.373Z,16.42
2023-02-23T18:19:29.123Z,16.37
2023-02-23T18:22:37.037Z,16.25
2023-02-23T18:26:04.370Z,16.20
2023-02-23T18:29:20.190Z,16.24
2023-02-23T18:32:24.922Z,16.18
2023-02-23T18:35:28.194Z,16.20
2023-02-23T18:38:30.157Z,16.22
2023-02-23T18:41:44.820Z,16.23
2023-02-23T18:44:46.947Z,16.52
2023-02-23T18:47:51.752Z,16.48
2023-02-23T18:50:59.427Z,16.33
2023-02-23T18:54:15.814Z,16.27
2023-02-23T18:58:46.111Z,16.21
2023-02-23T19:02:00.228Z,16.06
2023-02-23T19:05:06.791Z,16.20
2023-02-23T19:08:13.943Z,16.14
2023-02-23T19:11:16.005Z,16.25
2023-02-23T19:14:40.970Z,16.20
2023-02-23T19:17:46.493Z,16.25
2023-02-23T19:20:52.461Z,16.31
2023-02-23T19:25:22.691Z,16.16
2023-02-23T19:29:07.129Z,16.14
2023-02-23T19:32:23.387Z,16.00
2023-02-23T19:35:34.648Z,15.94
2023-02-23T19:39:11.153Z,15.92
2023-02-23T19:42:43.882Z,16.04
2023-02-23T19:45:49.816Z,15.95
2023-02-23T19:49:10.338Z,15.77
2023-02-23T19:52:12.442Z,15.65
2023-02-23T19:55:16.548Z,15.30
2023-02-23T19:58:18.687Z,16.78
2023-02-23T20:01:23.611Z,17.62
2023-02-23T20:04:29.724Z,17.42
2023-02-23T20:07:34.468Z,18.49
2023-02-23T20:10:39.087Z,18.87
2023-02-23T20:13:41.641Z,19.59
2023-02-23T20:16:43.990Z,19.80
2023-02-23T20:19:46.074Z,19.93
2023-02-23T20:22:52.985Z,19.69
2023-02-23T20:25:58.194Z,19.29
2023-02-23T20:29:01.489Z,19.00
2023-02-23T20:32:04.766Z,18.98
2023-02-23T20:35:08.960Z,18.95
2023-02-23T20:38:11.689Z,18.98
2023-02-23T20:41:13.708Z,17.51
2023-02-23T20:44:16.278Z,16.24
2023-02-23T20:47:19.304Z,15.46
2023-02-23T20:50:25.658Z,15.14
2023-02-23T20:53:28.878Z,14.96
2023-02-23T20:56:32.283Z,15.13
2023-02-23T20:59:40.600Z,15.17
2023-02-23T21:02:42.751Z,15.30
2023-02-23T21:05:44.837Z,15.32
2023-02-23T21:08:51.284Z,15.28
2023-02-23T21:11:53.481Z,15.13
2023-02-23T21:14:56.591Z,15.15
2023-02-23T21:17:59.036Z,15.03
2023-02-23T21:21:10.159Z,15.00
2023-02-23T21:24:15.054Z,15.31
2023-02-23T21:27:19.896Z,16.44
2023-02-23T21:30:24.197Z,16.03
2023-02-23T21:33:26.323Z,15.91
2023-02-23T21:36:28.309Z,15.91
2023-02-23T21:39:31.049Z,15.75
2023-02-23T21:42:33.200Z,15.49
2023-02-23T21:45:35.676Z,15.48
2023-02-23T21:48:37.771Z,15.52
2023-02-23T21:51:39.851Z,15.50
2023-02-23T21:54:46.880Z,16.67
2023-02-23T21:57:48.978Z,17.16
2023-02-23T22:00:52.711Z,17.39
2023-02-23T22:03:56.858Z,17.74
2023-02-23T22:06:59.468Z,18.40
2023-02-23T22:10:01.651Z,18.86
2023-02-23T22:13:03.704Z,18.89
2023-02-23T22:16:07.102Z,19.08
2023-02-23T22:19:12.348Z,19.07
2023-02-23T22:22:15.401Z,19.30
2023-02-23T22:25:20.543Z,19.12
2023-02-23T22:28:24.014Z,19.13
2023-02-23T22:31:26.142Z,19.19
2023-02-23T22:34:28.613Z,19.25
2023-02-23T22:37:31.725Z,18.65
2023-02-23T22:40:42.363Z,18.32
2023-02-23T22:43:47.111Z,17.91
2023-02-23T22:46:49.545Z,17.68
2023-02-23T22:49:51.687Z,17.30
2023-02-23T22:52:53.819Z,16.80
2023-02-23T22:55:56.806Z,17.13
2023-02-23T22:59:06.241Z,17.59
2023-02-23T23:02:08.323Z,17.95
2023-02-23T23:05:12.840Z,18.48
2023-02-23T23:08:15.576Z,18.34
2023-02-23T23:11:21.552Z,18.39
2023-02-23T23:14:24.128Z,18.14
2023-02-23T23:17:26.156Z,18.20
2023-02-23T23:20:29.254Z,18.09
2023-02-23T23:23:34.860Z,17.91
2023-02-23T23:26:39.904Z,17.77
2023-02-23T23:29:46.782Z,17.62
2023-02-23T23:32:49.793Z,17.70
2023-02-23T23:35:54.305Z,17.48
2023-02-23T23:38:57.498Z,17.47
2023-02-23T23:42:01.996Z,17.33
2023-02-23T23:45:07.084Z,17.16
2023-02-23T23:48:10.366Z,17.16
2023-02-23T23:51:12.901Z,16.96
2023-02-23T23:54:19.188Z,16.99
2023-02-23T23:57:24.287Z,16.94
